createdAt,value
2023-04-08T00:00:37.833Z,26.10
2023-04-08T00:03:18.644Z,28.80
2023-04-08T00:05:47.166Z,23.20
2023-04-08T00:08:15.571Z,26.30
2023-04-08T00:10:43.845Z,23.60
2023-04-08T00:13:12.432Z,21.30
2023-04-08T00:15:41.908Z,28.10
2023-04-08T00:18:10.083Z,24.90
2023-04-08T00:20:38.196Z,23.50
2023-04-08T00:23:06.518Z,23.70
2023-04-08T00:25:34.579Z,20.30
2023-04-08T00:28:03.035Z,23.20
2023-04-08T00:30:31.440Z,22.40
2023-04-08T00:32:59.796Z,27.70
2023-04-08T00:35:28.134Z,26.60
2023-04-08T00:37:56.382Z,23.30
2023-04-08T00:40:24.503Z,26.00
2023-04-08T00:42:52.579Z,23.70
2023-04-08T00:45:21.035Z,24.30
2023-04-08T00:47:52.868Z,26.00
2023-04-08T00:50:21.514Z,22.60
2023-04-08T00:52:49.590Z,28.70
2023-04-08T00:55:17.644Z,31.50
2023-04-08T00:57:46.778Z,25.70
2023-04-08T01:00:16.628Z,28.10
2023-04-08T01:03:07.224Z,26.40
2023-04-08T01:05:47.485Z,29.10
2023-04-08T01:08:17.808Z,26.20
2023-04-08T01:10:51.715Z,23.40
2023-04-08T01:13:23.902Z,21.90
2023-04-08T01:18:24.113Z,21.40
2023-04-08T01:20:54.773Z,24.00
2023-04-08T01:23:54.974Z,24.70
2023-04-08T01:26:25.931Z,20.40
2023-04-08T01:28:59.514Z,25.70
2023-04-08T01:31:28.472Z,21.20
2023-04-08T01:34:01.894Z,19.30
2023-04-08T01:36:32.771Z,24.50
2023-04-08T01:39:03.160Z,19.10
2023-04-08T01:41:34.169Z,22.50
2023-04-08T01:44:04.130Z,21.80
2023-04-08T01:46:33.858Z,26.60
2023-04-08T01:49:05.937Z,25.90
2023-04-08T01:51:38.886Z,23.60
2023-04-08T01:54:07.170Z,22.20
2023-04-08T01:56:39.510Z,23.30
2023-04-08T02:01:47.327Z,24.60
2023-04-08T02:04:15.644Z,23.00
2023-04-08T02:06:47.165Z,18.40
2023-04-08T02:09:15.768Z,21.50
2023-04-08T02:11:43.816Z,24.40
2023-04-08T02:14:12.124Z,19.70
2023-04-08T02:16:50.168Z,20.60
2023-04-08T02:19:36.641Z,18.90
2023-04-08T02:22:17.298Z,24.20
2023-04-08T02:24:47.296Z,22.60
2023-04-08T02:27:17.513Z,37.40
2023-04-08T02:29:46.273Z,41.60
2023-04-08T02:32:15.348Z,30.80
2023-04-08T02:34:44.384Z,30.60
2023-04-08T02:37:12.582Z,24.20
2023-04-08T02:39:40.711Z,24.80
2023-04-08T02:42:10.724Z,25.90
2023-04-08T02:44:39.967Z,31.10
2023-04-08T02:47:08.247Z,25.00
2023-04-08T02:49:36.596Z,27.00
2023-04-08T02:52:04.771Z,25.30
2023-04-08T02:54:33.235Z,24.90
2023-04-08T02:57:01.963Z,27.50
2023-04-08T02:59:30.059Z,30.50
2023-04-08T03:01:58.630Z,23.90
2023-04-08T03:04:26.854Z,28.10
2023-04-08T03:06:54.858Z,31.50
2023-04-08T03:09:23.032Z,27.10
2023-04-08T03:11:53.390Z,23.30
2023-04-08T03:14:22.371Z,24.60
2023-04-08T03:16:50.531Z,30.50
2023-04-08T03:19:18.712Z,31.00
2023-04-08T03:21:46.843Z,28.80
2023-04-08T03:24:15.123Z,30.30
2023-04-08T03:26:43.207Z,27.70
2023-04-08T03:29:11.599Z,29.40
2023-04-08T03:31:40.056Z,29.90
2023-04-08T03:34:08.136Z,31.30
2023-04-08T03:36:36.704Z,27.60
2023-04-08T03:39:05.992Z,30.70
2023-04-08T03:41:34.266Z,30.20
2023-04-08T03:44:02.548Z,27.10
2023-04-08T03:46:30.864Z,29.80
2023-04-08T03:48:58.947Z,30.70
2023-04-08T03:51:28.644Z,32.70
2023-04-08T03:53:56.848Z,27.00
2023-04-08T03:56:25.700Z,27.90
2023-04-08T03:58:53.729Z,28.70
2023-04-08T04:01:22.106Z,26.00
2023-04-08T04:03:50.559Z,32.90
2023-04-08T04:06:18.947Z,29.20
2023-04-08T04:08:47.230Z,28.40
2023-04-08T04:11:15.490Z,28.30
2023-04-08T04:13:43.559Z,27.70
2023-04-08T04:16:11.757Z,30.20
2023-04-08T04:18:39.894Z,29.80
2023-04-08T04:21:08.199Z,28.30
2023-04-08T04:23:36.437Z,31.50
2023-04-08T04:26:11.665Z,29.10
2023-04-08T04:28:40.047Z,27.40
2023-04-08T04:31:08.170Z,23.20
2023-04-08T04:33:36.500Z,28.10
2023-04-08T04:36:04.864Z,27.40
2023-04-08T04:38:33.021Z,29.60
2023-04-08T04:41:01.778Z,33.30
2023-04-08T04:43:30.325Z,30.40
2023-04-08T04:45:58.434Z,27.80
2023-04-08T04:48:26.593Z,31.60
2023-04-08T04:50:59.146Z,31.40
2023-04-08T04:53:27.303Z,28.90
2023-04-08T04:55:55.672Z,28.10
2023-04-08T04:58:24.012Z,38.30
2023-04-08T05:00:52.091Z,33.10
2023-04-08T05:03:20.745Z,34.70
2023-04-08T05:05:53.152Z,36.00
2023-04-08T05:10:55.789Z,33.60
2023-04-08T05:13:24.012Z,35.30
2023-04-08T05:15:52.185Z,38.80
2023-04-08T05:18:20.595Z,32.70
2023-04-08T05:20:48.908Z,35.70
2023-04-08T05:23:17.215Z,34.70
2023-04-08T05:25:45.430Z,32.40
2023-04-08T05:28:13.548Z,30.70
2023-04-08T05:30:42.109Z,37.90
2023-04-08T05:33:10.249Z,35.90
2023-04-08T05:35:38.385Z,39.30
2023-04-08T05:38:07.758Z,37.90
2023-04-08T05:40:36.351Z,33.30
2023-04-08T05:43:04.620Z,33.30
2023-04-08T05:45:32.782Z,36.80
2023-04-08T05:48:00.893Z,41.00
2023-04-08T05:50:29.144Z,37.70
2023-04-08T05:52:57.602Z,39.10
2023-04-08T05:55:26.035Z,32.50
2023-04-08T05:57:54.161Z,36.90
2023-04-08T06:00:22.414Z,36.60
2023-04-08T06:02:50.936Z,37.00
2023-04-08T06:05:19.363Z,38.30
2023-04-08T06:07:47.459Z,33.90
2023-04-08T06:10:16.364Z,39.80
2023-04-08T06:12:44.694Z,37.30
2023-04-08T06:15:13.128Z,37.90
2023-04-08T06:17:41.522Z,35.80
2023-04-08T06:20:10.092Z,38.40
2023-04-08T06:22:38.237Z,33.40
2023-04-08T06:25:07.252Z,35.00
2023-04-08T06:27:35.664Z,34.20
2023-04-08T06:30:03.973Z,36.00
2023-04-08T06:32:32.170Z,40.50
2023-04-08T06:35:00.224Z,37.20
2023-04-08T06:37:28.309Z,34.30
2023-04-08T06:39:56.787Z,32.90
2023-04-08T06:42:25.029Z,38.60
2023-04-08T06:45:11.930Z,38.70
2023-04-08T06:47:40.026Z,41.40
2023-04-08T06:50:08.426Z,36.30
2023-04-08T06:52:36.892Z,35.60
2023-04-08T06:55:05.313Z,36.60
2023-04-08T06:57:38.810Z,44.00
2023-04-08T07:00:07.801Z,38.20
2023-04-08T07:02:36.196Z,39.60
2023-04-08T07:05:05.444Z,37.90
2023-04-08T07:07:33.800Z,40.80
2023-04-08T07:10:02.034Z,36.60
2023-04-08T07:12:30.293Z,35.60
2023-04-08T07:14:58.661Z,35.40
2023-04-08T07:17:26.710Z,36.20
2023-04-08T07:19:54.971Z,33.60
2023-04-08T07:22:23.288Z,38.60
2023-04-08T07:24:52.305Z,34.40
2023-04-08T07:27:20.380Z,32.90
2023-04-08T07:29:54.253Z,38.40
2023-04-08T07:32:22.503Z,39.40
2023-04-08T07:34:51.124Z,39.90
2023-04-08T07:37:19.538Z,30.90
2023-04-08T07:39:47.974Z,32.20
2023-04-08T07:42:16.660Z,30.00
2023-04-08T07:44:46.274Z,31.20
2023-04-08T07:47:14.450Z,32.70
2023-04-08T07:49:42.674Z,26.90
2023-04-08T07:52:11.108Z,29.40
2023-04-08T07:54:39.172Z,28.40
2023-04-08T07:57:07.311Z,22.50
2023-04-08T07:59:36.222Z,21.70
2023-04-08T08:02:04.597Z,25.60
2023-04-08T08:04:32.882Z,23.30
2023-04-08T08:07:01.380Z,25.50
2023-04-08T08:09:31.593Z,25.10
2023-04-08T08:12:00.348Z,27.20
2023-04-08T08:14:29.190Z,27.20
2023-04-08T08:16:58.270Z,26.80
2023-04-08T08:19:26.561Z,25.00
2023-04-08T08:21:54.695Z,27.60
2023-04-08T08:24:23.067Z,23.90
2023-04-08T08:26:51.230Z,39.80
2023-04-08T08:29:19.331Z,41.50
2023-04-08T08:31:48.631Z,41.20
2023-04-08T08:34:16.997Z,43.80
2023-04-08T08:36:45.431Z,48.40
2023-04-08T08:39:13.518Z,41.60
2023-04-08T08:41:42.479Z,45.10
2023-04-08T08:44:11.143Z,42.50
2023-04-08T08:46:45.529Z,40.10
2023-04-08T08:49:14.351Z,40.00
2023-04-08T08:51:45.722Z,37.90
2023-04-08T08:54:15.490Z,43.60
2023-04-08T08:56:43.693Z,39.70
2023-04-08T08:59:11.749Z,39.80
2023-04-08T09:01:43.962Z,36.00
2023-04-08T09:04:18.450Z,42.70
2023-04-08T09:06:50.411Z,42.30
2023-04-08T09:09:18.754Z,43.00
2023-04-08T09:11:47.761Z,40.40
2023-04-08T09:14:23.240Z,43.50
2023-04-08T09:16:52.872Z,38.20
2023-04-08T09:19:21.206Z,39.70
2023-04-08T09:22:09.935Z,42.50
2023-04-08T09:24:38.516Z,42.60
2023-04-08T09:27:06.726Z,40.90
2023-04-08T09:29:37.454Z,36.20
2023-04-08T09:32:06.882Z,39.60
2023-04-08T09:34:35.354Z,45.90
2023-04-08T09:37:03.469Z,41.40
2023-04-08T09:39:32.312Z,38.90
2023-04-08T09:42:01.596Z,42.60
2023-04-08T09:44:33.325Z,37.50
2023-04-08T09:47:20.638Z,44.40
2023-04-08T09:49:58.607Z,42.90
2023-04-08T09:52:46.110Z,44.50
2023-04-08T09:55:17.769Z,38.50
2023-04-08T09:57:58.636Z,40.20
2023-04-08T10:00:34.697Z,40.50
2023-04-08T10:03:11.992Z,44.00
2023-04-08T10:05:42.536Z,37.10
2023-04-08T10:08:11.169Z,39.70
2023-04-08T10:10:41.745Z,34.30
2023-04-08T10:13:10.380Z,37.90
2023-04-08T10:15:40.916Z,39.40
2023-04-08T10:18:12.370Z,37.20
2023-04-08T10:20:40.633Z,36.10
2023-04-08T10:23:10.872Z,34.80
2023-04-08T10:25:41.488Z,39.90
2023-04-08T10:28:16.342Z,35.30
2023-04-08T10:30:48.178Z,39.50
2023-04-08T10:33:29.668Z,35.40
2023-04-08T10:36:10.458Z,38.60
2023-04-08T10:38:39.721Z,39.10
2023-04-08T10:41:08.541Z,40.80
2023-04-08T10:43:37.973Z,35.90
2023-04-08T10:46:06.634Z,35.50
2023-04-08T10:48:34.752Z,36.60
2023-04-08T10:51:04.953Z,42.40
2023-04-08T10:53:35.540Z,38.10
2023-04-08T10:56:15.740Z,34.00
2023-04-08T10:58:51.877Z,38.70
2023-04-08T11:01:20.455Z,32.60
2023-04-08T11:03:49.901Z,31.70
2023-04-08T11:06:19.572Z,31.60
2023-04-08T11:08:47.903Z,29.40
2023-04-08T11:11:16.406Z,27.00
2023-04-08T11:13:53.160Z,29.50
2023-04-08T11:16:23.121Z,27.80
2023-04-08T11:18:52.122Z,30.30
2023-04-08T11:21:22.319Z,31.40
2023-04-08T11:23:52.180Z,28.90
2023-04-08T11:26:21.261Z,26.30
2023-04-08T11:28:51.873Z,26.30
2023-04-08T11:31:24.715Z,28.40
2023-04-08T11:33:55.472Z,29.70
2023-04-08T11:36:23.605Z,29.70
2023-04-08T11:38:54.418Z,30.70
2023-04-08T11:41:23.113Z,30.10
2023-04-08T11:43:56.504Z,29.90
2023-04-08T11:46:25.005Z,35.30
2023-04-08T11:49:07.961Z,32.30
2023-04-08T11:51:55.381Z,27.70
2023-04-08T11:54:30.871Z,33.60
2023-04-08T11:56:59.681Z,32.20
2023-04-08T11:59:29.558Z,35.50
2023-04-08T12:01:59.270Z,36.50
2023-04-08T12:04:27.884Z,39.90
2023-04-08T12:06:58.334Z,40.40
2023-04-08T12:09:27.651Z,39.30
2023-04-08T12:11:57.690Z,35.00
2023-04-08T12:14:28.226Z,37.40
2023-04-08T12:16:56.751Z,34.10
2023-04-08T12:19:24.897Z,34.10
2023-04-08T12:21:53.272Z,36.50
2023-04-08T12:24:21.704Z,36.80
2023-04-08T12:26:49.713Z,34.40
2023-04-08T12:29:18.127Z,31.90
2023-04-08T12:31:47.010Z,31.30
2023-04-08T12:34:15.094Z,36.60
2023-04-08T12:36:44.972Z,35.20
2023-04-08T12:39:13.132Z,36.90
2023-04-08T12:41:41.241Z,35.90
2023-04-08T12:44:09.355Z,38.90
2023-04-08T12:46:37.868Z,34.20
2023-04-08T12:49:06.516Z,37.00
2023-04-08T12:51:35.933Z,36.60
2023-04-08T12:54:05.512Z,39.30
2023-04-08T12:56:34.136Z,35.80
2023-04-08T12:59:02.193Z,33.90
2023-04-08T13:01:31.041Z,41.30
2023-04-08T13:03:59.573Z,38.10
2023-04-08T13:06:28.215Z,37.70
2023-04-08T13:08:56.526Z,35.50
2023-04-08T13:11:25.274Z,37.80
2023-04-08T13:13:53.645Z,32.30
2023-04-08T13:16:22.208Z,33.00
2023-04-08T13:18:50.627Z,30.80
2023-04-08T13:21:19.173Z,32.50
2023-04-08T13:23:47.730Z,33.60
2023-04-08T13:26:16.021Z,28.10
2023-04-08T13:31:18.561Z,31.20
2023-04-08T13:33:46.771Z,34.90
2023-04-08T13:36:14.918Z,29.40
2023-04-08T13:38:43.829Z,24.60
2023-04-08T13:41:12.296Z,23.50
2023-04-08T13:43:41.305Z,24.70
2023-04-08T13:46:09.349Z,24.00
2023-04-08T13:48:37.768Z,25.90
2023-04-08T13:51:05.873Z,23.00
2023-04-08T13:53:33.931Z,28.10
2023-04-08T13:56:02.059Z,18.80
2023-04-08T13:58:30.561Z,17.90
2023-04-08T14:00:58.825Z,19.10
2023-04-08T14:03:28.227Z,24.70
2023-04-08T14:05:57.544Z,18.60
2023-04-08T14:08:26.711Z,22.50
2023-04-08T14:10:58.143Z,17.00
2023-04-08T14:13:26.613Z,21.00
2023-04-08T14:15:58.461Z,21.00
2023-04-08T14:18:27.609Z,19.10
2023-04-08T14:20:56.510Z,14.40
2023-04-08T14:23:24.775Z,16.70
2023-04-08T14:25:53.078Z,16.70
2023-04-08T14:28:21.549Z,13.90
2023-04-08T14:30:49.862Z,15.30
2023-04-08T14:33:19.018Z,13.80
2023-04-08T14:35:47.857Z,14.60
2023-04-08T14:38:16.273Z,13.50
2023-04-08T14:40:44.421Z,11.90
2023-04-08T14:43:13.745Z,12.60
2023-04-08T14:45:42.522Z,13.30
2023-04-08T14:48:11.434Z,15.00
2023-04-08T14:50:39.779Z,13.90
2023-04-08T14:53:07.972Z,10.90
2023-04-08T14:55:36.060Z,13.60
2023-04-08T14:58:04.737Z,16.60
2023-04-08T15:00:32.812Z,14.90
2023-04-08T15:03:01.117Z,15.80
2023-04-08T15:05:29.664Z,15.10
2023-04-08T15:07:57.970Z,18.50
2023-04-08T15:10:28.214Z,18.90
2023-04-08T15:12:56.309Z,15.10
2023-04-08T15:15:24.718Z,13.90
2023-04-08T15:17:52.962Z,16.30
2023-04-08T15:20:21.039Z,17.50
2023-04-08T15:22:49.650Z,17.70
2023-04-08T15:25:17.985Z,15.40
2023-04-08T15:27:46.085Z,16.10
2023-04-08T15:30:14.365Z,15.60
2023-04-08T15:32:42.585Z,16.40
2023-04-08T15:35:11.028Z,17.40
2023-04-08T15:37:39.138Z,19.70
2023-04-08T15:40:08.438Z,19.20
2023-04-08T15:42:36.569Z,22.20
2023-04-08T15:45:04.960Z,19.90
2023-04-08T15:47:34.508Z,16.90
2023-04-08T15:50:02.648Z,21.80
2023-04-08T15:52:32.542Z,21.00
2023-04-08T15:55:02.560Z,19.00
2023-04-08T15:57:32.389Z,17.80
2023-04-08T16:00:00.662Z,20.10
2023-04-08T16:02:29.033Z,18.40
2023-04-08T16:04:57.491Z,20.50
2023-04-08T16:07:25.708Z,18.00
2023-04-08T16:09:53.806Z,18.40
2023-04-08T16:12:21.939Z,19.20
2023-04-08T16:14:51.401Z,18.50
2023-04-08T16:17:19.512Z,20.10
2023-04-08T16:19:47.990Z,20.30
2023-04-08T16:22:16.242Z,22.70
2023-04-08T16:24:44.327Z,17.80
2023-04-08T16:27:12.789Z,22.80
2023-04-08T16:29:41.304Z,17.70
2023-04-08T16:32:09.610Z,18.60
2023-04-08T16:34:38.177Z,18.60
2023-04-08T16:37:06.221Z,18.30
2023-04-08T16:39:34.311Z,21.20
2023-04-08T16:42:02.354Z,22.20
2023-04-08T16:44:30.423Z,19.20
2023-04-08T16:46:58.558Z,21.30
2023-04-08T16:49:26.987Z,29.50
2023-04-08T16:51:55.462Z,19.90
2023-04-08T16:54:23.606Z,16.40
2023-04-08T16:56:52.124Z,23.50
2023-04-08T16:59:20.917Z,17.70
2023-04-08T17:01:49.186Z,27.00
2023-04-08T17:04:17.669Z,23.40
2023-04-08T17:06:45.895Z,21.80
2023-04-08T17:09:14.013Z,21.20
2023-04-08T17:11:42.355Z,23.40
2023-04-08T17:14:10.538Z,18.60
2023-04-08T17:16:38.773Z,23.40
2023-04-08T17:19:07.120Z,18.70
2023-04-08T17:21:35.618Z,23.60
2023-04-08T17:24:04.000Z,21.00
2023-04-08T17:26:32.068Z,24.60
2023-04-08T17:29:00.382Z,21.00
2023-04-08T17:31:28.714Z,23.40
2023-04-08T17:33:56.812Z,24.00
2023-04-08T17:36:26.257Z,28.70
2023-04-08T17:38:55.632Z,30.60
2023-04-08T17:41:38.478Z,21.40
2023-04-08T17:44:08.450Z,25.60
2023-04-08T17:46:36.901Z,57.20
2023-04-08T17:49:05.059Z,69.70
2023-04-08T17:51:34.417Z,72.50
2023-04-08T17:54:03.173Z,80.80
2023-04-08T17:56:31.449Z,61.70
2023-04-08T17:58:59.817Z,49.70
2023-04-08T18:01:28.239Z,52.40
2023-04-08T18:03:57.318Z,38.90
2023-04-08T18:06:26.327Z,44.10
2023-04-08T18:08:54.718Z,45.10
2023-04-08T18:11:26.539Z,40.40
2023-04-08T18:13:54.946Z,42.90
2023-04-08T18:16:23.151Z,40.30
2023-04-08T18:18:51.639Z,41.60
2023-04-08T18:21:19.904Z,40.40
2023-04-08T18:23:49.985Z,33.00
2023-04-08T18:26:18.665Z,35.80
2023-04-08T18:28:47.430Z,28.70
2023-04-08T18:31:16.800Z,30.30
2023-04-08T18:33:45.326Z,31.20
2023-04-08T18:36:14.088Z,33.60
2023-04-08T18:38:44.734Z,34.10
2023-04-08T18:41:13.386Z,34.80
2023-04-08T18:43:42.178Z,40.20
2023-04-08T18:46:10.504Z,36.10
2023-04-08T18:48:38.557Z,37.60
2023-04-08T18:51:08.143Z,39.10
2023-04-08T18:53:36.542Z,40.90
2023-04-08T18:56:05.156Z,38.20
2023-04-08T18:58:33.683Z,41.40
2023-04-08T19:01:08.118Z,38.00
2023-04-08T19:03:37.594Z,35.20
2023-04-08T19:06:10.954Z,33.70
2023-04-08T19:08:39.581Z,31.80
2023-04-08T19:11:07.615Z,31.90
2023-04-08T19:13:36.277Z,35.10
2023-04-08T19:16:05.532Z,38.60
2023-04-08T19:18:33.823Z,40.90
2023-04-08T19:21:01.881Z,42.90
2023-04-08T19:23:30.879Z,42.90
2023-04-08T19:25:59.235Z,50.20
2023-04-08T19:28:27.266Z,44.20
2023-04-08T19:30:55.860Z,50.40
2023-04-08T19:33:24.314Z,61.10
2023-04-08T19:35:52.786Z,54.00
2023-04-08T19:38:21.593Z,54.70
2023-04-08T19:40:49.878Z,52.20
2023-04-08T19:43:18.238Z,59.50
2023-04-08T19:45:46.681Z,66.50
2023-04-08T19:48:14.758Z,62.80
2023-04-08T19:50:43.237Z,66.90
2023-04-08T19:53:11.896Z,77.00
2023-04-08T19:55:40.067Z,71.00
2023-04-08T19:58:08.694Z,66.00
2023-04-08T20:00:38.649Z,63.40
2023-04-08T20:03:08.207Z,65.50
2023-04-08T20:05:37.037Z,69.20
2023-04-08T20:08:05.502Z,61.70
2023-04-08T20:10:35.712Z,62.10
2023-04-08T20:13:03.842Z,61.10
2023-04-08T20:15:32.335Z,54.90
2023-04-08T20:18:00.505Z,55.10
2023-04-08T20:20:29.970Z,59.30
2023-04-08T20:22:58.482Z,51.70
2023-04-08T20:25:26.799Z,74.30
2023-04-08T20:27:55.095Z,70.70
2023-04-08T20:30:24.507Z,64.00
2023-04-08T20:32:52.843Z,61.20
2023-04-08T20:35:22.130Z,71.70
2023-04-08T20:37:50.391Z,56.10
2023-04-08T20:40:18.584Z,53.70
2023-04-08T20:42:46.775Z,40.80
2023-04-08T20:45:15.777Z,42.80
2023-04-08T20:47:46.319Z,46.70
2023-04-08T20:50:14.815Z,42.10
2023-04-08T20:52:43.318Z,47.20
2023-04-08T20:55:11.352Z,42.10
2023-04-08T20:57:39.426Z,38.30
2023-04-08T21:00:15.533Z,42.60
2023-04-08T21:02:45.912Z,46.30
2023-04-08T21:05:14.531Z,42.80
2023-04-08T21:07:44.829Z,41.30
2023-04-08T21:10:14.473Z,42.10
2023-04-08T21:12:43.499Z,33.70
2023-04-08T21:15:11.812Z,41.80
2023-04-08T21:17:40.426Z,32.00
2023-04-08T21:20:09.271Z,32.90
2023-04-08T21:22:37.326Z,38.90
2023-04-08T21:25:06.214Z,28.60
2023-04-08T21:27:34.412Z,28.30
2023-04-08T21:30:04.011Z,28.00
2023-04-08T21:32:32.866Z,21.30
2023-04-08T21:35:01.486Z,23.10
2023-04-08T21:37:29.519Z,22.10
2023-04-08T21:39:57.581Z,26.10
2023-04-08T21:42:26.399Z,27.00
2023-04-08T21:44:54.572Z,20.10
2023-04-08T21:47:22.762Z,23.80
2023-04-08T21:49:50.939Z,24.10
2023-04-08T21:52:19.192Z,21.70
2023-04-08T21:54:51.694Z,25.40
2023-04-08T21:57:20.368Z,21.80
2023-04-08T21:59:48.712Z,26.10
2023-04-08T22:02:17.062Z,27.10
2023-04-08T22:04:48.964Z,26.70
2023-04-08T22:07:17.058Z,23.90
2023-04-08T22:09:46.350Z,24.50
2023-04-08T22:12:14.564Z,24.30
2023-04-08T22:14:42.585Z,24.00
2023-04-08T22:17:10.946Z,21.70
2023-04-08T22:19:39.158Z,26.80
2023-04-08T22:22:07.388Z,26.70
2023-04-08T22:24:35.847Z,27.80
2023-04-08T22:27:04.238Z,32.80
2023-04-08T22:29:32.762Z,31.20
2023-04-08T22:32:01.001Z,30.10
2023-04-08T22:34:29.162Z,24.20
2023-04-08T22:36:57.403Z,29.70
2023-04-08T22:39:26.892Z,24.00
2023-04-08T22:41:55.912Z,27.70
2023-04-08T22:44:24.241Z,28.50
2023-04-08T22:46:52.350Z,26.30
2023-04-08T22:49:20.479Z,27.90
2023-04-08T22:51:48.611Z,26.50
2023-04-08T22:54:16.728Z,27.50
2023-04-08T22:56:44.768Z,25.90
2023-04-08T22:59:12.928Z,32.00
2023-04-08T23:01:41.715Z,25.70
2023-04-08T23:04:09.942Z,30.80
2023-04-08T23:06:38.059Z,24.90
2023-04-08T23:09:06.269Z,27.30
2023-04-08T23:11:34.443Z,30.00
2023-04-08T23:14:02.590Z,31.40
2023-04-08T23:16:31.688Z,30.70
2023-04-08T23:18:59.990Z,36.00
2023-04-08T23:21:28.146Z,26.00
2023-04-08T23:23:56.231Z,32.40
2023-04-08T23:26:25.480Z,32.90
2023-04-08T23:28:54.165Z,31.00
2023-04-08T23:31:22.783Z,32.10
2023-04-08T23:33:51.064Z,40.30
2023-04-08T23:36:19.253Z,30.30
2023-04-08T23:38:47.360Z,25.50
2023-04-08T23:41:15.480Z,31.60
2023-04-08T23:43:43.635Z,29.40
2023-04-08T23:46:11.777Z,39.20
2023-04-08T23:48:39.995Z,27.90
2023-04-08T23:51:08.067Z,33.60
2023-04-08T23:53:36.382Z,37.20
2023-04-08T23:56:08.977Z,41.40
2023-04-08T23:58:37.356Z,27.90
